Aérodrome :
LOGIN :

S'inscrire | Disclaimer

   EN    FR    IT 

 










Légende :    VFR   VFR Marginal   IFR   IFR Intensif   IFR Très Intensif
Visi : 
Plafond : 
>= 8 km
>= 3000ft
5 à 8 km
1000 à 3000 ft
1500m à 5 km
500 à 1000 ft
800 à 1500m
200 à 500 ft
< 800m
< 200 ft
Symboles :   Orages  Brouillard  Fortes neiges  Fortes précipitations  Vent > 20 kt
SIGMETs :   Divers  Orages  Givrage  Turbulence  Onde Orograph.  Cendres Volcan.







- Altitude de l'aérodrome : 138 ft
- Code IATA : BIO


LEBB - Bilbao

DERNIER METAR :
  • 180730Z VRB02KT CAVOK 09/01 Q1019 NOSIG

METARs EXPIRÉS :
  • 180700Z VRB02KT CAVOK 09/01 Q1018 NOSIG
  • 180630Z VRB02KT CAVOK 10/01 Q1018 NOSIG
  • 180600Z 00000KT CAVOK 10/01 Q1018 NOSIG
  • 180530Z VRB02KT CAVOK 10/01 Q1018 NOSIG
  • 180500Z 05004KT 010V140 CAVOK 11/01 Q1018 NOSIG

TAF TAF LEBB
Valide du 18 à 06h jusqu'au 19 à 06h UTC


180500Z 1806/1906 16008KT CAVOK TX18/1815Z TN06/1906Z
BECMG 1814/1816 32010KT
PROB40
TEMPO 1818/1906 3000 RA BKN014
Pas de NOTAMs connus pour ce terrain.
1 SIGMET publié pour la FIR Madrid (LECM) :
 
Orages noyés dans la masse
LECM SIGMET 1 VALID 180727/181000 LEVA
LECM MADRID FIR/UIR EMBD TS FCST SW OF LINE N3733 W00715 - N3607 W00543 TOP FL300 STNR NC=



MET'MAP, la Météo Aéronautique d'un coup d'oeil ! - Copyright ORBIFLY Décembre 2007 - Disclaimer

ORBIFLY MET'MAP TEAM :

Programmation & Développement : Alexandra Zaïnal
Conception & Développement : Baudouin d'Aumeries
Co-Programmation & Développement : Marc-Olivier Méhu
Soutien technique & logistique : Manuel Goepfert

Contact : metmap@orbifly.com




SOURCES & CREDITS :

   NOAA